createdAt,value
2022-11-23T00:00:06.748Z,99557.98
2022-11-23T00:02:36.408Z,99568.58
2022-11-23T00:05:06.268Z,99573.50
2022-11-23T00:07:35.656Z,99579.50
2022-11-23T00:10:05.092Z,99575.23
2022-11-23T00:12:34.816Z,99569.88
2022-11-23T00:15:04.296Z,99567.91
2022-11-23T00:17:34.013Z,99580.19
2022-11-23T00:20:03.319Z,99580.48
2022-11-23T00:22:32.562Z,99590.77
2022-11-23T00:25:01.851Z,99585.77
2022-11-23T00:27:31.276Z,99592.03
2022-11-23T00:30:00.509Z,99589.69
2022-11-23T00:32:31.665Z,99586.00
2022-11-23T00:35:00.866Z,99592.88
2022-11-23T00:37:30.715Z,99594.55
2022-11-23T00:39:59.906Z,99594.33
2022-11-23T00:42:33.773Z,99591.94
2022-11-23T00:45:02.149Z,99596.63
2022-11-23T00:47:31.760Z,99597.78
2022-11-23T00:50:01.232Z,99599.29
2022-11-23T00:52:30.469Z,99598.95
2022-11-23T00:54:59.683Z,99600.00
2022-11-23T00:57:28.906Z,99596.14
2022-11-23T00:59:59.627Z,99601.72
2022-11-23T01:02:28.867Z,99603.52
2022-11-23T01:04:58.255Z,99607.39
2022-11-23T01:07:30.534Z,99605.05
2022-11-23T01:09:59.941Z,99604.58
2022-11-23T01:12:30.316Z,99606.55
2022-11-23T01:14:59.561Z,99604.36
2022-11-23T01:17:30.164Z,99605.10
2022-11-23T01:19:59.593Z,99603.05
2022-11-23T01:22:28.980Z,99604.58
2022-11-23T01:24:58.390Z,99609.40
2022-11-23T01:27:27.612Z,99608.56
2022-11-23T01:29:57.089Z,99615.24
2022-11-23T01:32:26.402Z,99616.64
2022-11-23T01:34:55.629Z,99613.19
2022-11-23T01:37:25.021Z,99616.84
2022-11-23T01:39:54.392Z,99613.41
2022-11-23T01:42:23.685Z,99614.72
2022-11-23T01:44:53.590Z,99620.63
2022-11-23T01:47:22.828Z,99626.55
2022-11-23T01:49:53.510Z,99626.55
2022-11-23T01:52:24.747Z,99624.64
2022-11-23T01:54:56.110Z,99626.75
2022-11-23T01:57:27.791Z,99622.97
2022-11-23T01:59:57.585Z,99627.92
2022-11-23T02:02:28.441Z,99623.86
2022-11-23T02:04:59.205Z,99631.23
2022-11-23T02:07:29.659Z,99628.95
2022-11-23T02:09:59.238Z,99632.77
2022-11-23T02:12:28.768Z,99629.31
2022-11-23T02:14:58.041Z,99627.64
2022-11-23T02:17:27.267Z,99627.25
2022-11-23T02:20:05.521Z,99630.30
2022-11-23T02:22:52.820Z,99635.86
2022-11-23T02:25:47.958Z,99636.34
2022-11-23T02:28:20.153Z,99632.88
2022-11-23T02:30:51.207Z,99638.48
2022-11-23T02:33:22.240Z,99638.95
2022-11-23T02:35:53.392Z,99639.23
2022-11-23T02:38:26.386Z,99643.07
2022-11-23T02:40:57.498Z,99645.97
2022-11-23T02:43:27.105Z,99652.04
2022-11-23T02:46:02.201Z,99647.88
2022-11-23T02:48:31.521Z,99645.23
2022-11-23T02:51:02.413Z,99644.12
2022-11-23T02:53:33.720Z,99649.36
2022-11-23T02:56:02.950Z,99649.08
2022-11-23T02:58:32.332Z,99652.20
2022-11-23T03:01:01.753Z,99654.60
2022-11-23T03:03:31.182Z,99648.66
2022-11-23T03:06:00.409Z,99661.52
2022-11-23T03:08:29.633Z,99652.53
2022-11-23T03:10:58.917Z,99662.47
2022-11-23T03:13:28.419Z,99657.78
2022-11-23T03:15:58.069Z,99657.84
2022-11-23T03:18:28.889Z,99666.09
2022-11-23T03:21:07.025Z,99668.38
2022-11-23T03:23:38.510Z,99665.62
2022-11-23T03:26:13.094Z,99669.19
2022-11-23T03:28:42.672Z,99661.55
2022-11-23T03:31:12.405Z,99658.64
2022-11-23T03:33:41.690Z,99657.52
2022-11-23T03:36:11.068Z,99657.18
2022-11-23T03:38:42.000Z,99661.41
2022-11-23T03:41:12.965Z,99664.69
2022-11-23T03:43:44.218Z,99665.05
2022-11-23T03:46:13.617Z,99666.00
2022-11-23T03:48:42.858Z,99664.69
2022-11-23T03:51:12.657Z,99662.75
2022-11-23T03:53:42.068Z,99663.12
2022-11-23T03:56:11.783Z,99665.23
2022-11-23T03:58:42.679Z,99665.85
2022-11-23T04:01:13.901Z,99659.80
2022-11-23T04:03:43.993Z,99659.19
2022-11-23T04:06:17.722Z,99656.16
2022-11-23T04:09:03.843Z,99654.42
2022-11-23T04:11:43.837Z,99660.75
2022-11-23T04:14:13.098Z,99660.70
2022-11-23T04:16:42.610Z,99650.31
2022-11-23T04:19:12.313Z,99656.38
2022-11-23T04:21:43.568Z,99659.54
2022-11-23T04:24:12.857Z,99662.16
2022-11-23T04:26:43.330Z,99660.11
2022-11-23T04:29:12.897Z,99663.85
2022-11-23T04:31:43.950Z,99660.40
2022-11-23T04:34:17.608Z,99659.56
2022-11-23T04:36:47.186Z,99663.16
2022-11-23T04:39:16.522Z,99663.36
2022-11-23T04:41:56.807Z,99664.67
2022-11-23T04:44:25.989Z,99668.33
2022-11-23T04:46:57.046Z,99660.06
2022-11-23T04:49:26.779Z,99661.02
2022-11-23T04:51:56.148Z,99662.33
2022-11-23T04:54:27.138Z,99661.23
2022-11-23T04:56:58.073Z,99669.09
2022-11-23T04:59:27.892Z,99656.94
2022-11-23T05:01:57.491Z,99660.46
2022-11-23T05:04:40.463Z,99663.73
2022-11-23T05:07:10.289Z,99662.94
2022-11-23T05:09:41.242Z,99653.77
2022-11-23T05:12:21.149Z,99662.13
2022-11-23T05:14:50.513Z,99663.59
2022-11-23T05:17:24.620Z,99664.25
2022-11-23T05:19:56.159Z,99662.75
2022-11-23T05:22:26.029Z,99661.52
2022-11-23T05:24:55.707Z,99669.30
2022-11-23T05:27:26.003Z,99674.50
2022-11-23T05:29:56.091Z,99674.08
2022-11-23T05:32:25.602Z,99673.19
2022-11-23T05:34:54.996Z,99672.08
2022-11-23T05:37:25.685Z,99670.48
2022-11-23T05:39:56.593Z,99672.30
2022-11-23T05:42:26.355Z,99666.03
2022-11-23T05:44:57.303Z,99677.49
2022-11-23T05:47:28.374Z,99683.95
2022-11-23T05:49:57.576Z,99679.27
2022-11-23T05:52:28.308Z,99675.46
2022-11-23T05:54:57.666Z,99669.42
2022-11-23T05:57:27.171Z,99675.34
2022-11-23T05:59:56.945Z,99670.70
2022-11-23T06:02:27.886Z,99673.17
2022-11-23T06:04:58.803Z,99665.59
2022-11-23T06:07:29.919Z,99666.20
2022-11-23T06:10:04.853Z,99664.73
2022-11-23T06:12:34.809Z,99656.73
2022-11-23T06:15:05.588Z,99660.28
2022-11-23T06:17:37.127Z,99661.39
2022-11-23T06:20:09.176Z,99665.32
2022-11-23T06:22:40.321Z,99673.20
2022-11-23T06:25:10.552Z,99668.37
2022-11-23T06:27:41.718Z,99670.91
2022-11-23T06:30:16.649Z,99673.52
2022-11-23T06:32:46.256Z,99665.42
2022-11-23T06:35:15.711Z,99672.30
2022-11-23T06:37:45.867Z,99669.83
2022-11-23T06:40:15.091Z,99668.45
2022-11-23T06:42:44.907Z,99665.91
2022-11-23T06:45:22.006Z,99666.02
2022-11-23T06:47:57.523Z,99671.16
2022-11-23T06:50:27.405Z,99665.63
2022-11-23T06:52:58.314Z,99671.14
2022-11-23T06:55:38.376Z,99671.61
2022-11-23T06:58:09.426Z,99680.03
2022-11-23T07:00:39.046Z,99681.41
2022-11-23T07:03:24.803Z,99690.79
2022-11-23T07:05:55.967Z,99689.59
2022-11-23T07:08:27.145Z,99694.36
2022-11-23T07:11:02.630Z,99697.20
2022-11-23T07:13:32.269Z,99695.89
2022-11-23T07:16:01.657Z,99701.80
2022-11-23T07:18:31.049Z,99713.16
2022-11-23T07:21:01.341Z,99712.34
2022-11-23T07:23:30.801Z,99719.46
2022-11-23T07:26:00.395Z,99727.83
2022-11-23T07:28:29.707Z,99725.64
2022-11-23T07:30:59.006Z,99730.12
2022-11-23T07:33:30.310Z,99734.53
2022-11-23T07:36:02.872Z,99735.84
2022-11-23T07:38:33.513Z,99745.70
2022-11-23T07:41:04.050Z,99742.11
2022-11-23T07:43:38.101Z,99757.22
2022-11-23T07:46:07.834Z,99756.11
2022-11-23T07:48:37.043Z,99766.41
2022-11-23T07:51:06.749Z,99768.95
2022-11-23T07:53:37.432Z,99769.04
2022-11-23T07:56:07.282Z,99765.17
2022-11-23T07:58:36.485Z,99773.23
2022-11-23T08:01:06.070Z,99770.05
2022-11-23T08:03:35.424Z,99773.09
2022-11-23T08:06:05.125Z,99770.43
2022-11-23T08:08:35.315Z,99769.78
2022-11-23T08:11:09.756Z,99772.69
2022-11-23T08:13:38.938Z,99768.14
2022-11-23T08:16:09.804Z,99764.89
2022-11-23T08:18:38.991Z,99763.72
2022-11-23T08:21:08.383Z,99762.40
2022-11-23T08:23:37.580Z,99759.02
2022-11-23T08:26:13.239Z,99754.94
2022-11-23T08:28:38.774Z,99758.53
2022-11-23T08:31:10.024Z,99762.30
2022-11-23T08:33:40.058Z,99769.95
2022-11-23T08:36:10.309Z,99730.77
2022-11-23T08:38:39.495Z,99759.52
2022-11-23T08:41:09.658Z,99762.09
2022-11-23T08:43:38.853Z,99759.95
2022-11-23T08:46:11.215Z,99770.16
2022-11-23T08:48:39.250Z,99781.94
2022-11-23T08:51:10.314Z,99782.30
2022-11-23T08:53:40.082Z,99768.10
2022-11-23T08:56:09.612Z,99764.73
2022-11-23T08:58:38.884Z,99762.19
2022-11-23T09:01:13.555Z,99764.47
2022-11-23T09:03:43.536Z,99766.31
2022-11-23T09:06:13.210Z,99755.30
2022-11-23T09:08:42.446Z,99748.41
2022-11-23T09:11:14.298Z,99748.50
2022-11-23T09:13:43.519Z,99740.84
2022-11-23T09:16:12.907Z,99741.52
2022-11-23T09:18:42.215Z,99738.23
2022-11-23T09:21:11.940Z,99734.02
2022-11-23T09:23:41.162Z,99727.98
2022-11-23T09:26:10.737Z,99721.98
2022-11-23T09:28:44.479Z,99721.97
2022-11-23T09:31:11.096Z,99711.34
2022-11-23T09:33:40.580Z,99699.75
2022-11-23T09:36:10.553Z,99696.08
2022-11-23T09:38:56.131Z,99694.72
2022-11-23T09:41:32.915Z,99689.20
2022-11-23T09:44:05.703Z,99691.86
2022-11-23T09:46:44.074Z,99686.92
2022-11-23T09:49:18.349Z,99691.86
2022-11-23T09:51:48.375Z,99695.11
2022-11-23T09:54:26.425Z,99693.25
2022-11-23T09:57:01.610Z,99696.81
2022-11-23T09:59:42.937Z,99695.03
2022-11-23T10:02:23.271Z,99697.89
2022-11-23T10:04:54.093Z,99699.64
2022-11-23T10:07:26.490Z,99710.97
2022-11-23T10:10:15.304Z,99698.63
2022-11-23T10:12:56.985Z,99705.70
2022-11-23T10:15:32.416Z,99706.87
2022-11-23T10:18:22.866Z,99693.48
2022-11-23T10:21:14.937Z,99697.34
2022-11-23T10:23:56.112Z,99703.19
2022-11-23T10:26:33.662Z,99695.31
2022-11-23T10:29:24.022Z,99705.69
2022-11-23T10:31:57.280Z,99705.07
2022-11-23T10:34:47.709Z,99704.94
2022-11-23T10:37:17.986Z,99697.74
2022-11-23T10:39:47.345Z,99688.86
2022-11-23T10:42:22.324Z,99699.28
2022-11-23T10:44:53.076Z,99694.91
2022-11-23T10:47:38.587Z,99689.00
2022-11-23T10:50:26.447Z,99687.69
2022-11-23T10:53:01.456Z,99680.11
2022-11-23T10:55:33.521Z,99675.67
2022-11-23T10:58:02.735Z,99665.69
2022-11-23T11:00:32.043Z,99656.28
2022-11-23T11:03:03.220Z,99657.16
2022-11-23T11:06:08.573Z,99653.62
2022-11-23T11:08:20.752Z,99644.27
2022-11-23T11:11:08.898Z,99633.50
2022-11-23T11:13:47.146Z,99628.02
2022-11-23T11:16:38.900Z,99618.55
2022-11-23T11:19:29.668Z,99609.63
2022-11-23T11:22:00.560Z,99604.98
2022-11-23T11:24:35.370Z,99603.08
2022-11-23T11:27:16.651Z,99600.09
2022-11-23T11:29:51.745Z,99593.73
2022-11-23T11:32:39.388Z,99585.47
2022-11-23T11:35:20.390Z,99594.45
2022-11-23T11:37:53.225Z,99575.16
2022-11-23T11:40:34.574Z,99578.85
2022-11-23T11:43:10.183Z,99583.63
2022-11-23T11:46:28.140Z,99582.13
2022-11-23T11:48:25.459Z,99583.52
2022-11-23T11:51:13.189Z,99574.28
2022-11-23T11:53:54.784Z,99578.12
2022-11-23T11:56:36.237Z,99568.92
2022-11-23T11:59:09.889Z,99569.54
2022-11-23T12:02:00.517Z,99569.45
2022-11-23T12:04:49.706Z,99572.75
2022-11-23T12:07:27.822Z,99565.33
2022-11-23T12:10:00.204Z,99557.17
2022-11-23T12:12:30.096Z,99559.02
2022-11-23T12:14:59.601Z,99553.51
2022-11-23T12:17:49.817Z,99544.66
2022-11-23T12:20:43.587Z,99539.99
2022-11-23T12:23:21.737Z,99546.52
2022-11-23T12:26:06.111Z,99546.56
2022-11-23T12:28:54.989Z,99534.05
2022-11-23T12:31:38.055Z,99535.16
2022-11-23T12:34:30.080Z,99531.22
2022-11-23T12:37:14.427Z,99524.33
2022-11-23T12:39:54.295Z,99523.70
2022-11-23T12:42:29.803Z,99515.77
2022-11-23T12:45:02.170Z,99525.85
2022-11-23T12:47:58.246Z,99523.17
2022-11-23T12:50:36.268Z,99513.60
2022-11-23T12:53:28.040Z,99515.55
2022-11-23T12:56:09.384Z,99522.77
2022-11-23T12:58:40.281Z,99531.78
2022-11-23T13:01:31.137Z,99541.45
2022-11-23T13:04:27.435Z,99547.34
2022-11-23T13:07:40.053Z,99558.84
2022-11-23T13:10:16.536Z,99552.73
2022-11-23T13:12:54.452Z,99565.30
2022-11-23T13:15:30.110Z,99583.03
2022-11-23T13:18:30.937Z,99588.58
2022-11-23T13:21:26.286Z,99582.81
2022-11-23T13:23:55.475Z,99587.23
2022-11-23T13:26:28.307Z,99580.89
2022-11-23T13:28:58.814Z,99589.48
2022-11-23T13:31:33.685Z,99589.59
2022-11-23T13:34:05.051Z,99592.50
2022-11-23T13:37:12.232Z,99594.11
2022-11-23T13:39:42.146Z,99597.75
2022-11-23T13:42:12.092Z,99606.92
2022-11-23T13:44:41.556Z,99604.30
2022-11-23T13:47:17.120Z,99603.94
2022-11-23T13:49:53.920Z,99610.49
2022-11-23T13:52:26.505Z,99613.48
2022-11-23T13:55:02.650Z,99614.53
2022-11-23T13:57:30.665Z,99624.03
2022-11-23T14:00:19.222Z,99614.45
2022-11-23T14:02:48.462Z,99611.31
2022-11-23T14:05:50.627Z,99612.21
2022-11-23T14:08:20.214Z,99608.28
2022-11-23T14:10:50.833Z,99616.09
2022-11-23T14:13:23.558Z,99611.47
2022-11-23T14:15:58.994Z,99609.69
2022-11-23T14:18:51.113Z,99616.16
2022-11-23T14:21:29.307Z,99616.02
2022-11-23T14:24:05.493Z,99624.53
2022-11-23T14:26:46.873Z,99629.48
2022-11-23T14:29:19.398Z,99630.57
2022-11-23T14:32:06.790Z,99614.05
2022-11-23T14:35:02.394Z,99606.11
2022-11-23T14:37:53.044Z,99612.98
2022-11-23T14:40:28.462Z,99623.83
2022-11-23T14:42:59.374Z,99625.95
2022-11-23T14:45:32.130Z,99631.08
2022-11-23T14:48:29.577Z,99639.41
2022-11-23T14:51:12.984Z,99640.86
2022-11-23T14:53:47.155Z,99643.67
2022-11-23T14:56:22.053Z,99643.89
2022-11-23T14:58:52.084Z,99649.14
2022-11-23T15:01:23.281Z,99647.83
2022-11-23T15:04:00.902Z,99638.66
2022-11-23T15:06:34.887Z,99626.50
2022-11-23T15:09:13.317Z,99637.96
2022-11-23T15:11:42.549Z,99649.75
2022-11-23T15:14:22.424Z,99636.56
2022-11-23T15:16:51.866Z,99638.98
2022-11-23T15:19:31.045Z,99651.39
2022-11-23T15:22:01.316Z,99660.93
2022-11-23T15:24:31.386Z,99661.59
2022-11-23T15:27:12.036Z,99657.88
2022-11-23T15:29:39.318Z,99662.62
2022-11-23T15:32:32.806Z,99661.53
2022-11-23T15:35:07.040Z,99667.25
2022-11-23T15:37:39.820Z,99674.55
2022-11-23T15:40:12.392Z,99674.55
2022-11-23T15:42:40.880Z,99677.36
2022-11-23T15:45:29.749Z,99684.33
2022-11-23T15:48:01.266Z,99696.48
2022-11-23T15:50:34.039Z,99697.10
2022-11-23T15:53:02.083Z,99712.55
2022-11-23T15:55:31.763Z,99706.88
2022-11-23T15:58:01.970Z,99714.05
2022-11-23T16:00:31.822Z,99724.19
2022-11-23T16:03:20.727Z,99725.78
2022-11-23T16:06:11.960Z,99725.17
2022-11-23T16:08:41.903Z,99733.51
2022-11-23T16:11:29.950Z,99740.81
2022-11-23T16:14:13.549Z,99744.55
2022-11-23T16:16:46.074Z,99748.77
2022-11-23T16:19:27.627Z,99754.00
2022-11-23T16:22:02.559Z,99749.57
2022-11-23T16:24:33.038Z,99750.08
2022-11-23T16:27:04.935Z,99750.69
2022-11-23T16:29:36.932Z,99765.38
2022-11-23T16:32:09.509Z,99759.81
2022-11-23T16:34:38.075Z,99760.20
2022-11-23T16:37:07.495Z,99764.69
2022-11-23T16:39:36.779Z,99771.19
2022-11-23T16:42:06.174Z,99768.89
2022-11-23T16:44:41.209Z,99774.89
2022-11-23T16:47:24.028Z,99769.78
2022-11-23T16:49:54.138Z,99779.66
2022-11-23T16:52:23.974Z,99788.22
2022-11-23T16:54:53.497Z,99791.73
2022-11-23T16:57:30.336Z,99799.53
2022-11-23T17:00:02.392Z,99804.91
2022-11-23T17:02:31.870Z,99803.23
2022-11-23T17:05:01.410Z,99820.77
2022-11-23T17:07:30.703Z,99833.94
2022-11-23T17:10:00.238Z,99831.45
2022-11-23T17:12:29.458Z,99833.51
2022-11-23T17:15:00.052Z,99828.91
2022-11-23T17:17:30.261Z,99833.78
2022-11-23T17:20:03.847Z,99831.77
2022-11-23T17:22:30.519Z,99837.92
2022-11-23T17:24:59.937Z,99841.89
2022-11-23T17:27:29.840Z,99854.85
2022-11-23T17:30:03.858Z,99852.88
2022-11-23T17:32:33.510Z,99854.52
2022-11-23T17:35:02.843Z,99855.69
2022-11-23T17:37:32.521Z,99856.87
2022-11-23T17:40:01.743Z,99865.06
2022-11-23T17:42:31.208Z,99869.27
2022-11-23T17:45:00.424Z,99869.73
2022-11-23T17:47:31.190Z,99875.91
2022-11-23T17:50:00.488Z,99886.49
2022-11-23T17:52:29.845Z,99889.98
2022-11-23T17:54:59.071Z,99886.45
2022-11-23T17:57:28.617Z,99902.03
2022-11-23T18:00:01.981Z,99909.16
2022-11-23T18:02:28.993Z,99906.44
2022-11-23T18:04:58.622Z,99923.34
2022-11-23T18:07:28.389Z,99920.14
2022-11-23T18:09:57.789Z,99915.52
2022-11-23T18:12:26.976Z,99914.06
2022-11-23T18:14:56.480Z,99928.67
2022-11-23T18:17:25.632Z,99927.63
2022-11-23T18:19:54.871Z,99925.00
2022-11-23T18:22:24.095Z,99931.24
2022-11-23T18:24:53.403Z,99941.30
2022-11-23T18:27:22.635Z,99935.61
2022-11-23T18:29:52.102Z,99940.94
2022-11-23T18:32:21.312Z,99939.09
2022-11-23T18:34:50.681Z,99942.42
2022-11-23T18:37:19.883Z,99957.48
2022-11-23T18:39:49.154Z,99943.34
2022-11-23T18:42:18.854Z,99957.55
2022-11-23T18:44:48.318Z,99955.20
2022-11-23T18:47:17.602Z,99958.42
2022-11-23T18:49:47.116Z,99962.98
2022-11-23T18:52:17.109Z,99971.45
2022-11-23T18:54:46.554Z,99979.09
2022-11-23T18:57:16.819Z,99971.50
2022-11-23T19:00:02.292Z,99983.57
2022-11-23T19:02:17.204Z,99982.27
2022-11-23T19:04:46.559Z,99978.64
2022-11-23T19:07:15.926Z,99981.06
2022-11-23T19:09:45.439Z,99974.77
2022-11-23T19:12:14.812Z,99979.80
2022-11-23T19:14:45.881Z,99995.54
2022-11-23T19:17:15.166Z,100000.57
2022-11-23T19:19:44.589Z,99998.09
2022-11-23T19:22:13.828Z,99997.38
2022-11-23T19:24:43.100Z,99996.77
2022-11-23T19:27:12.369Z,99992.98
2022-11-23T19:29:41.614Z,99993.03
2022-11-23T19:32:11.083Z,99996.85
2022-11-23T19:34:40.358Z,99996.52
2022-11-23T19:37:09.640Z,100002.27
2022-11-23T19:39:39.031Z,100007.19
2022-11-23T19:42:08.392Z,100010.96
2022-11-23T19:44:37.918Z,100016.98
2022-11-23T19:47:13.218Z,100041.48
2022-11-23T19:49:38.492Z,100037.86
2022-11-23T19:52:07.947Z,100022.23
2022-11-23T19:54:37.259Z,100030.09
2022-11-23T19:57:06.572Z,100033.58
2022-11-23T19:59:37.013Z,100042.20
2022-11-23T20:02:06.568Z,100037.72
2022-11-23T20:04:36.384Z,100035.47
2022-11-23T20:07:05.928Z,100050.22
2022-11-23T20:09:35.960Z,100060.70
2022-11-23T20:12:05.663Z,100048.91
2022-11-23T20:14:34.947Z,100050.95
2022-11-23T20:17:04.309Z,100059.73
2022-11-23T20:19:33.957Z,100061.02
2022-11-23T20:22:03.348Z,100060.10
2022-11-23T20:24:32.828Z,100061.94
2022-11-23T20:27:02.162Z,100066.12
2022-11-23T20:29:31.850Z,100070.00
2022-11-23T20:32:01.736Z,100078.33
2022-11-23T20:34:31.097Z,100066.15
2022-11-23T20:37:00.394Z,100075.83
2022-11-23T20:39:29.671Z,100073.80
2022-11-23T20:41:59.233Z,100074.53
2022-11-23T20:44:33.710Z,100084.88
2022-11-23T20:47:02.677Z,100085.13
2022-11-23T20:49:31.550Z,100089.64
2022-11-23T20:52:02.356Z,100096.55
2022-11-23T20:54:32.457Z,100103.08
2022-11-23T20:57:02.268Z,100105.91
2022-11-23T20:59:32.888Z,100110.34
2022-11-23T21:02:02.483Z,100113.04
2022-11-23T21:04:32.574Z,100113.83
2022-11-23T21:07:02.374Z,100118.94
2022-11-23T21:09:32.124Z,100124.31
2022-11-23T21:12:19.790Z,100123.60
2022-11-23T21:14:49.223Z,100124.91
2022-11-23T21:17:19.368Z,100128.72
2022-11-23T21:19:48.773Z,100120.91
2022-11-23T21:22:18.747Z,100133.73
2022-11-23T21:24:48.210Z,100131.06
2022-11-23T21:27:17.526Z,100138.20
2022-11-23T21:29:46.783Z,100151.56
2022-11-23T21:32:16.227Z,100146.90
2022-11-23T21:34:45.669Z,100156.02
2022-11-23T21:37:15.042Z,100156.73
2022-11-23T21:39:49.453Z,100157.67
2022-11-23T21:42:15.509Z,100163.03
2022-11-23T21:44:44.886Z,100156.95
2022-11-23T21:47:14.373Z,100161.20
2022-11-23T21:49:43.863Z,100161.39
2022-11-23T21:52:13.113Z,100175.29
2022-11-23T21:54:48.633Z,100165.02
2022-11-23T21:57:13.566Z,100174.45
2022-11-23T21:59:42.956Z,100171.62
2022-11-23T22:02:13.119Z,100171.94
2022-11-23T22:04:42.538Z,100177.73
2022-11-23T22:07:12.057Z,100172.72
2022-11-23T22:09:41.564Z,100180.61
2022-11-23T22:12:10.888Z,100194.44
2022-11-23T22:14:40.264Z,100193.91
2022-11-23T22:17:09.577Z,100192.52
2022-11-23T22:19:39.103Z,100195.03
2022-11-23T22:22:08.298Z,100191.81
2022-11-23T22:24:38.096Z,100204.34
2022-11-23T22:27:07.314Z,100206.50
2022-11-23T22:29:36.693Z,100215.80
2022-11-23T22:32:06.098Z,100220.34
2022-11-23T22:34:35.899Z,100220.78
2022-11-23T22:37:10.404Z,100220.47
2022-11-23T22:39:36.504Z,100224.31
2022-11-23T22:42:06.440Z,100241.19
2022-11-23T22:44:36.005Z,100238.30
2022-11-23T22:47:05.364Z,100231.28
2022-11-23T22:49:34.725Z,100234.89
2022-11-23T22:52:03.935Z,100236.53
2022-11-23T22:54:33.702Z,100242.02
2022-11-23T22:57:03.083Z,100248.34
2022-11-23T22:59:32.563Z,100243.94
2022-11-23T23:02:01.765Z,100259.33
2022-11-23T23:04:31.504Z,100280.81
2022-11-23T23:07:01.125Z,100275.45
2022-11-23T23:09:30.492Z,100291.17
2022-11-23T23:11:59.813Z,100293.33
2022-11-23T23:14:29.330Z,100301.53
2022-11-23T23:17:00.976Z,100300.60
2022-11-23T23:19:30.590Z,100294.39
2022-11-23T23:21:59.889Z,100292.61
2022-11-23T23:24:29.298Z,100298.58
2022-11-23T23:26:59.308Z,100296.92
2022-11-23T23:29:28.918Z,100294.22
2022-11-23T23:31:58.245Z,100294.69
2022-11-23T23:34:27.765Z,100291.41
2022-11-23T23:36:56.957Z,100281.09
2022-11-23T23:39:26.304Z,100276.35
2022-11-23T23:41:55.517Z,100278.38
2022-11-23T23:44:24.750Z,100280.53
2022-11-23T23:46:53.972Z,100280.99
2022-11-23T23:49:24.576Z,100280.53
2022-11-23T23:51:53.744Z,100279.12
2022-11-23T23:54:23.123Z,100284.33
2022-11-23T23:56:52.795Z,100286.11
2022-11-23T23:59:23.608Z,100286.85
